aviador You're here:

KMQY Decoded Metar

SMYRNA in TN, USA
Report Time2017-04-25 08:00:00
UTC Time2017-04-25 08:27:43
Flight Rules mvfr MVFR
WindCalm
Visibility8047 m
Phenomena:Mist
Clouds:N/A
CeilingNone
Temp10°C (ISA -4)
Dew Point10°C (100% RH)
QNH1008 hPa
Density Alt413 ft
Elevation545 ft
Report Wrong Elevation
Raw Report
KMQY 250800Z AUTO 00000KT 5SM BR CLR 10/10 A2977 RMK AO2=

Extra information for KMQY:More info

Metar Taf Metar & Taf Last 4 Metars F.Rules Stats Wind Profile Meteogram Temp Stats Airport Information Weather charts Add Link Nearby VenuesMetar ALERT Operation Metar Decoded Social comments

AIRNAV info for KMQY